• Join FlightAware (Why Join?)
  • Login
  • US Flag 
12:03PM EDT


 

Airport Tracker/Info


-or-


 

Live Flight TrackerFlight Track Log ✈ SKW6524 ✈ 09-May-2013 ✈ KDEN - CYQR

Flight Track Log - Related Links

Times and Time Zones

All times are in EDT time to prevent confusion due to time zone crossing. See the SKW6524 flight status page for this flight to view local times or setup timezone preferences in your user account.

Time Position Orientation Groundspeed Altitude Reporting Facility
EDT Latitude Longitude Course Direction KTS MPH feet Rate Location/Type
10:10PM 39.8500 -104.7333 346° North 162 186 6,500  Level Denver TRACON
10:11PM 39.8667 -104.8167 285° West 221 254 8,300 1,740 Climbing Denver TRACON
10:12PM 39.8936 -104.8719 302° West 250 288 9,600 1,500 Climbing Denver Center
10:13PM 40.2674 -104.8019 347° North  Level FlightAware Approximate
10:13PM 39.9586 -104.9319 325° Northwest 294 338 11,000  Level Denver Center
10:14PM 40.3721 -104.8351 346° North  Level FlightAware Approximate
10:14PM 40.0489 -104.9256 North 301 346 13,400  Level Denver Center
10:15PM 40.4764 -104.8699 346° North  Level FlightAware Approximate
10:15PM 40.1369 -104.9158 North 319 367 16,000  Level Denver Center
10:16PM 40.2122 -104.9100 North 319 367 17,600 1,560 Climbing Denver Center
10:17PM 40.3039 -104.9000 North 336 387 19,300 1,740 Climbing Denver Center
10:18PM 40.4197 -104.8886 North 336 387 21,300 1,500 Climbing Denver Center
10:19PM 40.5017 -104.8811 North 350 403 22,400 1,200 Climbing Denver Center
10:20PM 40.6256 -104.8689 North 359 413 23,900 1,320 Climbing Denver Center
10:21PM 40.7275 -104.8589 North 365 420 25,200 1,140 Climbing Denver Center
10:22PM 40.8364 -104.8742 354° North 368 423 26,300 960 Climbing Denver Center
10:23PM 40.9308 -104.9181 341° North 373 429 27,300 780 Climbing Denver Center
10:24PM 41.0331 -104.9036 North 384 442 28,000 780 Climbing Denver Center
10:25PM 41.1525 -104.8906 North 384 442 29,000 780 Climbing Denver Center
10:26PM 41.2575 -104.8800 North 392 451 29,700 720 Climbing Denver Center
10:27PM 41.3789 -104.8653 North 392 451 30,600 780 Climbing Denver Center
10:28PM 41.4831 -104.8533 North 392 451 31,400 600 Climbing Denver Center
10:29PM 41.6050 -104.8406 North 393 452 32,000 240 Climbing Denver Center
10:30PM 41.7286 -104.8294 North 396 456 32,000  Level Denver Center
10:31PM 41.8539 -104.8147 North 403 464 32,000  Level Denver Center
10:32PM 41.9617 -104.8042 North 404 465 32,000  Level Denver Center
10:33PM 42.0856 -104.7911 North 401 461 32,000  Level Denver Center
10:34PM 42.1928 -104.7786 North 402 463 32,000  Level Denver Center
10:35PM 42.3153 -104.7661 North 397 457 32,000  Level Denver Center
10:37PM 42.4203 -104.7544 North 394 453 32,000  Level Denver Center
10:38PM 42.5256 -104.7439 North 392 451 32,000  Level Denver Center
10:39PM 42.6531 -104.7300 North 398 458 32,000  Level Denver Center
10:40PM 42.7617 -104.7172 North 402 463 32,000  Level Denver Center
10:41PM 42.8683 -104.7044 North 401 461 32,000  Level Denver Center
10:42PM 42.9919 -104.6894 North 399 459 32,000  Level Denver Center
10:43PM 43.1000 -104.6769 North 402 463 32,000  Level Denver Center
10:44PM 43.2253 -104.6622 North 404 465 32,000  Level Denver Center
10:45PM 43.3328 -104.6494 North 404 465 32,000  Level Denver Center
10:46PM 43.4575 -104.6353 North 404 465 32,000  Level Denver Center
10:47PM 43.5644 -104.6228 North 403 464 32,000  Level Denver Center
10:48PM 43.6711 -104.6114 North 402 463 32,000  Level Denver Center
10:49PM 43.7956 -104.5947 North 401 461 32,000  Level Denver Center
10:50PM 43.9019 -104.5839 North 401 461 32,000  Level Denver Center
10:51PM 44.0247 -104.5692 North 397 457 32,000  Level Denver Center
10:52PM 44.1300 -104.5564 North 398 458 32,000  Level Denver Center
10:53PM 44.2356 -104.5444 North 397 457 32,000  Level Denver Center
10:54PM 44.3586 -104.5297 North 397 457 32,000  Level Denver Center
10:55PM 44.4644 -104.5189 North 398 458 32,000  Level Denver Center
10:56PM 44.5869 -104.5042 North 397 457 32,000  Level Denver Center
10:57PM 44.6931 -104.4914 North 399 459 32,000  Level Denver Center
10:58PM 44.8169 -104.4761 North 400 460 32,000  Level Denver Center
10:59PM 44.9231 -104.4619 North 399 459 32,000  Level Denver Center
11:00PM 45.0378 -104.4500 North 402 463 32,000  Level Denver Center
11:01PM 45.1375 -104.4369 North 402 463 32,000  Level Salt Lake Center
11:02PM 45.2619 -104.4219 North 404 465 32,000  Level Salt Lake Center
11:03PM 45.3728 -104.4061 North 402 463 32,000  Level Salt Lake Center
11:04PM 45.4850 -104.3933 North 403 464 32,000  Level Salt Lake Center
11:05PM 45.5961 -104.3797 North 402 463 32,000  Level Salt Lake Center
11:06PM 45.7064 -104.3658 North 399 459 32,000  Level Salt Lake Center
11:07PM 45.8153 -104.3522 North 393 452 32,000  Level Salt Lake Center
11:08PM 45.9228 -104.3403 North 390 449 32,000  Level Salt Lake Center
11:09PM 46.0500 -104.3219 North 385 443 32,000  Level Salt Lake Center
11:10PM 46.1567 -104.3097 North 385 443 32,000  Level Salt Lake Center
11:11PM 46.2614 -104.2969 North 382 440 32,000  Level Salt Lake Center
11:12PM 46.3644 -104.2828 North 376 433 32,000  Level Salt Lake Center
11:13PM 46.4683 -104.2683 North 375 432 32,000  Level Salt Lake Center
11:14PM 46.5717 -104.2561 North 374 430 32,000  Level Salt Lake Center
11:15PM 46.6750 -104.2425 North 374 430 32,000  Level Salt Lake Center
11:16PM 46.7989 -104.2269 North 372 428 32,000  Level Salt Lake Center
11:18PM 46.9017 -104.2128 North 372 428 32,000  Level Salt Lake Center
11:19PM 47.0047 -104.1994 North 372 428 32,000  Level Salt Lake Center
11:20PM 47.1069 -104.1847 North 371 427 32,000  Level Salt Lake Center
11:21PM 47.2100 -104.1733 North 371 427 32,000  Level Salt Lake Center
11:22PM 47.3122 -104.1606 North 370 426 32,000  Level Salt Lake Center
11:23PM 47.4150 -104.1469 North 370 426 32,000  Level Salt Lake Center
11:24PM 47.5169 -104.1339 North 367 422 32,000  Level Salt Lake Center
11:25PM 47.6203 -104.1208 North 368 423 32,000  Level Salt Lake Center
11:26PM 47.7247 -104.1067 North 370 426 32,000  Level Salt Lake Center
11:27PM 47.8289 -104.0936 North 371 427 32,000  Level Salt Lake Center
11:28PM 47.9528 -104.0761 North 371 427 32,000  Level Salt Lake Center
11:29PM 48.0556 -104.0622 North 371 427 32,000  Level Salt Lake Center
11:30PM 48.1581 -104.0483 North 370 426 32,000  Level Salt Lake Center
11:31PM 48.2611 -104.0339 North 370 426 32,000  Level Salt Lake Center
11:32PM 48.3636 -104.0222 North 370 426 32,000  Level Salt Lake Center
11:33PM 48.4672 -104.0056 North 371 427 32,000  Level Salt Lake Center
11:34PM 48.5703 -103.9950 North 372 428 32,000  Level Salt Lake Center
11:35PM 48.6731 -103.9872 North 371 427 32,000  Level Salt Lake Center
11:36PM 48.7764 -103.9819 North 372 428 32,000  Level Salt Lake Center
11:37PM 48.9006 -103.9742 North 372 428 32,000  Level Salt Lake Center
11:38PM 48.9500 -103.9667 North 370 426 32,000  Level Winnipeg Center
11:39PM 49.0500 -103.9667 360° North 370 426 32,000  Level Winnipeg Center
11:40PM 49.1500 -103.9833 354° North 370 426 32,000 -300 Level Winnipeg Center
11:41PM 49.2667 -103.9667 North 370 426 31,500 -1,200 Descending Winnipeg Center
11:42PM 49.3667 -103.9500 North 370 426 29,600 -1,980 Descending Winnipeg Center
11:43PM 49.4500 -104.0167 333° Northwest 360 414 27,600 -2,100 Descending Winnipeg Center
11:44PM 49.5333 -104.0833 333° Northwest 360 414 25,500 -2,100 Descending Winnipeg Center
11:45PM 49.6167 -104.1500 333° Northwest 360 414 23,400 -2,460 Descending Winnipeg Center
11:46PM 49.7167 -104.2167 337° Northwest 360 414 20,600 -2,760 Descending Winnipeg Center
11:47PM 49.8167 -104.2833 337° Northwest 350 403 17,900 -2,820 Descending Winnipeg Center
11:48PM 49.9000 -104.3500 333° Northwest 340 391 15,000 -2,400 Descending Winnipeg Center
11:49PM 49.9667 -104.4167 327° Northwest 330 380 13,100 -1,860 Descending Winnipeg Center
11:50PM 50.0500 -104.4833 333° Northwest 310 357 11,300 -1,860 Descending Winnipeg Center
11:51PM 50.1167 -104.5167 342° North 280 322 9,400 -1,800 Descending Winnipeg Center
11:52PM 50.1833 -104.5833 327° Northwest 260 299 7,700 -1,620 Descending Winnipeg Center
11:53PM 50.2500 -104.6167 342° North 250 288 6,200 -1,260 Descending Winnipeg Center
11:54PM 50.3000 -104.6833 320° Northwest 250 288 5,200 -1,080 Descending Winnipeg Center
11:55PM 50.3500 -104.7167 337° Northwest 240 276 4,100 -780 Descending Winnipeg Center
11:56PM 50.4167 -104.7833 328° Northwest 210 242 3,700 -420 Descending Winnipeg Center